createdAt,value
2023-04-16T00:01:02.285Z,7.95
2023-04-16T00:03:28.812Z,7.96
2023-04-16T00:05:59.249Z,7.96
2023-04-16T00:08:25.682Z,7.93
2023-04-16T00:10:53.465Z,7.93
2023-04-16T00:13:20.024Z,7.93
2023-04-16T00:15:46.513Z,7.93
2023-04-16T00:18:12.990Z,7.95
2023-04-16T00:20:39.654Z,7.97
2023-04-16T00:23:06.242Z,7.94
2023-04-16T00:25:32.689Z,7.95
2023-04-16T00:27:59.121Z,7.94
2023-04-16T00:30:25.620Z,7.94
2023-04-16T00:32:52.075Z,7.92
2023-04-16T00:35:18.618Z,7.94
2023-04-16T00:37:45.119Z,7.93
2023-04-16T00:40:11.878Z,7.94
2023-04-16T00:42:38.362Z,7.94
2023-04-16T00:45:05.708Z,7.96
2023-04-16T00:47:32.339Z,7.99
2023-04-16T00:49:59.067Z,7.97
2023-04-16T00:52:26.565Z,7.97
2023-04-16T00:54:53.970Z,7.97
2023-04-16T00:57:23.794Z,7.97
2023-04-16T00:59:51.425Z,7.99
2023-04-16T01:02:18.049Z,8.00
2023-04-16T01:04:44.540Z,7.99
2023-04-16T01:07:11.259Z,7.97
2023-04-16T01:09:37.699Z,7.96
2023-04-16T01:12:04.260Z,7.95
2023-04-16T01:14:36.115Z,7.98
2023-04-16T01:17:03.832Z,7.98
2023-04-16T01:19:36.170Z,8.00
2023-04-16T01:22:03.609Z,7.98
2023-04-16T01:24:30.428Z,7.98
2023-04-16T01:27:00.132Z,8.01
2023-04-16T01:29:27.228Z,8.02
2023-04-16T01:31:54.324Z,8.00
2023-04-16T01:34:20.885Z,8.02
2023-04-16T01:36:47.322Z,8.03
2023-04-16T01:39:15.674Z,8.02
2023-04-16T01:41:43.713Z,8.01
2023-04-16T01:44:10.316Z,8.02
2023-04-16T01:46:38.157Z,8.03
2023-04-16T01:49:05.830Z,8.04
2023-04-16T01:51:32.430Z,8.05
2023-04-16T01:53:59.055Z,8.07
2023-04-16T01:56:25.909Z,8.06
2023-04-16T01:58:53.174Z,8.02
2023-04-16T02:01:20.002Z,8.03
2023-04-16T02:03:47.519Z,8.04
2023-04-16T02:06:14.770Z,8.05
2023-04-16T02:08:41.707Z,8.03
2023-04-16T02:11:08.217Z,8.00
2023-04-16T02:13:34.836Z,8.00
2023-04-16T02:16:02.520Z,8.01
2023-04-16T02:18:29.122Z,7.99
2023-04-16T02:20:58.444Z,7.98
2023-04-16T02:23:24.895Z,8.01
2023-04-16T02:25:51.603Z,8.01
2023-04-16T02:28:18.121Z,8.02
2023-04-16T02:30:44.611Z,8.03
2023-04-16T02:33:12.441Z,8.03
2023-04-16T02:35:39.781Z,7.99
2023-04-16T02:38:07.156Z,7.97
2023-04-16T02:40:34.070Z,8.00
2023-04-16T02:43:00.757Z,7.98
2023-04-16T02:45:27.387Z,7.98
2023-04-16T02:47:54.058Z,7.99
2023-04-16T02:50:20.696Z,7.97
2023-04-16T02:52:47.186Z,7.97
2023-04-16T02:55:13.644Z,7.96
2023-04-16T02:57:40.761Z,7.97
2023-04-16T03:00:09.041Z,7.96
2023-04-16T03:02:35.570Z,7.93
2023-04-16T03:05:02.992Z,7.92
2023-04-16T03:07:29.535Z,7.93
2023-04-16T03:09:56.006Z,7.93
2023-04-16T03:12:22.467Z,7.96
2023-04-16T03:14:51.318Z,8.00
2023-04-16T03:17:17.914Z,7.99
2023-04-16T03:19:44.347Z,8.02
2023-04-16T03:22:10.782Z,8.03
2023-04-16T03:24:38.149Z,8.02
2023-04-16T03:27:04.553Z,8.04
2023-04-16T03:29:31.025Z,8.07
2023-04-16T03:31:57.668Z,8.05
2023-04-16T03:34:24.074Z,8.07
2023-04-16T03:36:50.554Z,8.07
2023-04-16T03:39:17.072Z,8.06
2023-04-16T03:41:43.455Z,8.08
2023-04-16T03:44:09.867Z,8.07
2023-04-16T03:46:36.465Z,8.08
2023-04-16T03:49:02.990Z,8.09
2023-04-16T03:51:29.428Z,8.09
2023-04-16T03:53:56.006Z,8.10
2023-04-16T03:56:22.512Z,8.09
2023-04-16T03:58:49.037Z,8.11
2023-04-16T04:01:15.419Z,8.13
2023-04-16T04:03:42.027Z,8.12
2023-04-16T04:06:09.289Z,8.11
2023-04-16T04:08:35.774Z,8.13
2023-04-16T04:11:02.268Z,8.15
2023-04-16T04:13:28.668Z,8.13
2023-04-16T04:15:55.270Z,8.14
2023-04-16T04:18:21.818Z,8.15
2023-04-16T04:20:48.302Z,8.14
2023-04-16T04:23:14.856Z,8.16
2023-04-16T04:25:41.368Z,8.15
2023-04-16T04:28:07.875Z,8.16
2023-04-16T04:30:35.799Z,8.18
2023-04-16T04:33:02.372Z,8.18
2023-04-16T04:35:29.087Z,8.18
2023-04-16T04:37:55.679Z,8.19
2023-04-16T04:40:22.348Z,8.18
2023-04-16T04:42:48.916Z,8.17
2023-04-16T04:45:16.018Z,8.18
2023-04-16T04:47:42.536Z,8.19
2023-04-16T04:50:09.574Z,8.20
2023-04-16T04:52:36.318Z,8.20
2023-04-16T04:55:02.763Z,8.20
2023-04-16T04:57:29.152Z,8.21
2023-04-16T04:59:55.613Z,8.22
2023-04-16T05:02:22.172Z,8.22
2023-04-16T05:04:48.801Z,8.22
2023-04-16T05:07:15.298Z,8.23
2023-04-16T05:09:41.713Z,8.26
2023-04-16T05:12:08.457Z,8.23
2023-04-16T05:14:36.272Z,8.23
2023-04-16T05:17:02.883Z,8.27
2023-04-16T05:19:29.415Z,8.24
2023-04-16T05:21:56.275Z,8.27
2023-04-16T05:24:23.122Z,8.28
2023-04-16T05:26:49.605Z,8.27
2023-04-16T05:29:16.053Z,8.27
2023-04-16T05:31:42.543Z,8.30
2023-04-16T05:34:08.981Z,8.29
2023-04-16T05:36:35.436Z,8.29
2023-04-16T05:39:02.006Z,8.29
2023-04-16T05:41:28.544Z,8.27
2023-04-16T05:43:55.247Z,8.28
2023-04-16T05:46:21.647Z,8.28
2023-04-16T05:48:48.060Z,8.31
2023-04-16T05:51:14.537Z,8.32
2023-04-16T05:53:41.024Z,8.33
2023-04-16T05:56:07.895Z,8.32
2023-04-16T05:58:34.330Z,8.34
2023-04-16T06:01:01.423Z,8.34
2023-04-16T06:03:28.041Z,8.36
2023-04-16T06:05:54.666Z,8.36
2023-04-16T06:08:21.293Z,8.36
2023-04-16T06:10:47.897Z,8.36
2023-04-16T06:13:14.801Z,8.38
2023-04-16T06:15:41.270Z,8.38
2023-04-16T06:18:07.814Z,8.36
2023-04-16T06:20:34.322Z,8.36
2023-04-16T06:23:00.997Z,8.34
2023-04-16T06:25:27.441Z,8.34
2023-04-16T06:27:53.886Z,8.34
2023-04-16T06:30:20.518Z,8.36
2023-04-16T06:32:47.933Z,8.35
2023-04-16T06:35:14.679Z,8.34
2023-04-16T06:37:41.468Z,8.36
2023-04-16T06:40:08.483Z,8.37
2023-04-16T06:42:34.991Z,8.37
2023-04-16T06:45:01.616Z,8.37
2023-04-16T06:47:28.154Z,8.34
2023-04-16T06:49:54.643Z,8.34
2023-04-16T06:52:21.194Z,8.35
2023-04-16T06:54:48.502Z,8.35
2023-04-16T06:57:15.018Z,8.38
2023-04-16T06:59:41.772Z,8.39
2023-04-16T07:02:10.609Z,8.39
2023-04-16T07:04:37.301Z,8.40
2023-04-16T07:07:03.985Z,8.43
2023-04-16T07:09:30.530Z,8.47
2023-04-16T07:11:57.034Z,8.50
2023-04-16T07:14:23.562Z,8.53
2023-04-16T07:16:50.294Z,8.54
2023-04-16T07:19:16.984Z,8.58
2023-04-16T07:21:43.761Z,8.58
2023-04-16T07:24:14.163Z,8.61
2023-04-16T07:26:41.005Z,8.64
2023-04-16T07:29:07.514Z,8.66
2023-04-16T07:31:34.087Z,8.64
2023-04-16T07:34:00.648Z,8.71
2023-04-16T07:36:28.329Z,8.70
2023-04-16T07:38:54.794Z,8.75
2023-04-16T07:41:21.368Z,8.78
2023-04-16T07:43:47.841Z,8.83
2023-04-16T07:46:14.428Z,8.84
2023-04-16T07:48:41.229Z,8.86
2023-04-16T07:51:07.872Z,8.89
2023-04-16T07:53:34.367Z,8.89
2023-04-16T07:56:00.803Z,8.98
2023-04-16T07:58:27.327Z,9.00
2023-04-16T08:00:53.849Z,8.98
2023-04-16T08:03:20.575Z,9.00
2023-04-16T08:05:47.101Z,8.99
2023-04-16T08:08:13.542Z,9.04
2023-04-16T08:10:40.054Z,9.06
2023-04-16T08:13:06.866Z,9.15
2023-04-16T08:15:33.439Z,9.15
2023-04-16T08:18:00.013Z,9.16
2023-04-16T08:20:26.640Z,9.23
2023-04-16T08:22:56.724Z,9.28
2023-04-16T08:25:24.629Z,9.28
2023-04-16T08:27:51.190Z,9.33
2023-04-16T08:30:17.747Z,9.42
2023-04-16T08:32:44.386Z,9.42
2023-04-16T08:35:10.900Z,9.51
2023-04-16T08:37:37.382Z,9.49
2023-04-16T08:40:04.058Z,9.55
2023-04-16T08:42:34.021Z,9.63
2023-04-16T08:45:08.640Z,9.65
2023-04-16T08:47:37.268Z,9.67
2023-04-16T08:50:05.252Z,9.69
2023-04-16T08:52:32.432Z,9.76
2023-04-16T08:55:12.358Z,9.84
2023-04-16T08:57:44.625Z,9.97
2023-04-16T09:00:12.088Z,10.05
2023-04-16T09:02:39.217Z,9.98
2023-04-16T09:05:07.564Z,10.03
2023-04-16T09:07:35.539Z,10.05
2023-04-16T09:10:03.320Z,10.09
2023-04-16T09:12:30.660Z,10.12
2023-04-16T09:14:59.765Z,10.18
2023-04-16T09:17:27.164Z,10.32
2023-04-16T09:19:54.858Z,10.34
2023-04-16T09:22:21.361Z,10.29
2023-04-16T09:24:47.866Z,10.27
2023-04-16T09:27:14.303Z,10.29
2023-04-16T09:29:41.994Z,10.30
2023-04-16T09:32:10.022Z,10.29
2023-04-16T09:34:55.605Z,10.26
2023-04-16T09:37:22.061Z,10.26
2023-04-16T09:40:02.579Z,10.30
2023-04-16T09:42:31.774Z,10.44
2023-04-16T09:45:00.927Z,10.60
2023-04-16T09:47:41.188Z,10.63
2023-04-16T09:50:13.234Z,10.60
2023-04-16T09:52:39.902Z,10.58
2023-04-16T09:55:06.880Z,10.62
2023-04-16T09:57:33.331Z,10.61
2023-04-16T10:00:11.838Z,10.65
2023-04-16T10:02:42.560Z,10.66
2023-04-16T10:05:09.655Z,10.65
2023-04-16T10:07:37.102Z,10.65
2023-04-16T10:10:04.979Z,10.74
2023-04-16T10:12:32.819Z,10.81
2023-04-16T10:14:59.413Z,10.91
2023-04-16T10:17:26.681Z,11.01
2023-04-16T10:19:54.620Z,11.10
2023-04-16T10:22:21.398Z,11.25
2023-04-16T10:24:49.900Z,11.06
2023-04-16T10:27:17.612Z,11.07
2023-04-16T10:29:44.992Z,11.16
2023-04-16T10:32:12.120Z,11.15
2023-04-16T10:34:39.135Z,11.23
2023-04-16T10:37:05.598Z,11.29
2023-04-16T10:39:37.405Z,11.34
2023-04-16T10:42:09.020Z,11.46
2023-04-16T10:44:36.126Z,11.65
2023-04-16T10:47:02.849Z,11.74
2023-04-16T10:49:29.367Z,11.87
2023-04-16T10:52:13.449Z,11.94
2023-04-16T10:54:41.239Z,11.81
2023-04-16T10:57:16.264Z,11.82
2023-04-16T10:59:44.095Z,11.97
2023-04-16T11:02:18.048Z,12.03
2023-04-16T11:04:46.662Z,11.86
2023-04-16T11:07:19.377Z,12.08
2023-04-16T11:09:53.440Z,12.13
2023-04-16T11:12:32.706Z,12.05
2023-04-16T11:15:00.424Z,11.97
2023-04-16T11:17:36.491Z,11.99
2023-04-16T11:20:05.155Z,11.90
2023-04-16T11:22:46.494Z,11.97
2023-04-16T11:25:13.563Z,11.99
2023-04-16T11:27:40.963Z,12.16
2023-04-16T11:30:09.692Z,12.22
2023-04-16T11:32:38.525Z,12.15
2023-04-16T11:35:19.002Z,12.23
2023-04-16T11:37:46.756Z,12.27
2023-04-16T11:40:13.495Z,12.26
2023-04-16T11:42:42.088Z,12.11
2023-04-16T11:45:10.980Z,11.99
2023-04-16T11:47:50.283Z,11.99
2023-04-16T11:50:19.383Z,12.03
2023-04-16T11:52:46.933Z,12.21
2023-04-16T11:55:13.492Z,12.35
2023-04-16T11:57:40.246Z,12.58
2023-04-16T12:00:10.982Z,12.68
2023-04-16T12:02:41.544Z,12.91
2023-04-16T12:05:32.730Z,13.07
2023-04-16T12:08:01.219Z,12.98
2023-04-16T12:10:28.580Z,13.04
2023-04-16T12:12:55.953Z,12.99
2023-04-16T12:15:22.411Z,12.88
2023-04-16T12:17:50.447Z,12.84
2023-04-16T12:20:16.967Z,12.96
2023-04-16T12:22:49.423Z,12.95
2023-04-16T12:25:18.000Z,12.97
2023-04-16T12:27:54.018Z,13.04
2023-04-16T12:30:22.959Z,13.14
2023-04-16T12:32:51.628Z,13.18
2023-04-16T12:35:31.641Z,13.09
2023-04-16T12:37:58.227Z,12.90
2023-04-16T12:40:24.761Z,12.79
2023-04-16T12:42:51.289Z,12.78
2023-04-16T12:45:17.818Z,12.81
2023-04-16T12:47:44.411Z,12.71
2023-04-16T12:50:11.088Z,12.71
2023-04-16T12:52:37.613Z,12.63
2023-04-16T12:55:04.572Z,12.67
2023-04-16T12:57:31.091Z,12.76
2023-04-16T12:59:58.413Z,12.79
2023-04-16T13:02:25.710Z,12.80
2023-04-16T13:04:53.264Z,12.77
2023-04-16T13:07:19.891Z,12.81
2023-04-16T13:09:46.588Z,12.86
2023-04-16T13:12:13.105Z,12.87
2023-04-16T13:14:39.702Z,12.92
2023-04-16T13:17:06.123Z,12.94
2023-04-16T13:19:32.606Z,12.91
2023-04-16T13:21:59.280Z,12.84
2023-04-16T13:24:25.821Z,12.76
2023-04-16T13:26:52.502Z,12.76
2023-04-16T13:29:19.731Z,12.71
2023-04-16T13:31:46.979Z,12.70
2023-04-16T13:34:13.414Z,12.67
2023-04-16T13:36:40.291Z,12.69
2023-04-16T13:39:11.474Z,12.68
2023-04-16T13:41:38.756Z,12.65
2023-04-16T13:44:05.659Z,12.63
2023-04-16T13:46:32.391Z,12.63
2023-04-16T13:48:58.975Z,12.62
2023-04-16T13:51:25.455Z,12.63
2023-04-16T13:53:51.853Z,12.68
2023-04-16T13:56:18.317Z,12.77
2023-04-16T13:58:44.756Z,12.77
2023-04-16T14:01:11.476Z,12.77
2023-04-16T14:03:38.947Z,12.78
2023-04-16T14:06:05.588Z,12.82
2023-04-16T14:08:32.137Z,12.83
2023-04-16T14:10:58.897Z,12.89
2023-04-16T14:13:25.551Z,12.94
2023-04-16T14:15:55.691Z,12.95
2023-04-16T14:18:22.218Z,12.94
2023-04-16T14:20:48.642Z,12.98
2023-04-16T14:23:15.131Z,13.00
2023-04-16T14:25:41.660Z,12.97
2023-04-16T14:28:09.230Z,13.00
2023-04-16T14:30:35.793Z,12.93
2023-04-16T14:33:04.819Z,12.93
2023-04-16T14:35:31.321Z,12.96
2023-04-16T14:37:58.340Z,12.93
2023-04-16T14:40:24.832Z,12.93
2023-04-16T14:42:51.362Z,12.95
2023-04-16T14:45:17.766Z,12.94
2023-04-16T14:47:47.752Z,12.95
2023-04-16T14:50:14.852Z,12.95
2023-04-16T14:52:41.702Z,12.98
2023-04-16T14:55:08.258Z,13.01
2023-04-16T14:57:35.277Z,13.03
2023-04-16T15:00:02.327Z,13.07
2023-04-16T15:02:29.006Z,13.09
2023-04-16T15:04:55.584Z,13.09
2023-04-16T15:07:22.234Z,13.14
2023-04-16T15:09:48.690Z,13.14
2023-04-16T15:12:16.231Z,13.18
2023-04-16T15:14:43.940Z,13.24
2023-04-16T15:17:10.581Z,13.36
2023-04-16T15:19:37.227Z,13.45
2023-04-16T15:22:03.659Z,13.42
2023-04-16T15:24:30.335Z,13.49
2023-04-16T15:26:57.329Z,13.58
2023-04-16T15:29:23.791Z,13.76
2023-04-16T15:31:50.271Z,13.98
2023-04-16T15:34:16.776Z,14.08
2023-04-16T15:36:43.315Z,14.23
2023-04-16T15:39:10.652Z,14.24
2023-04-16T15:41:46.954Z,14.26
2023-04-16T15:44:23.935Z,14.24
2023-04-16T15:46:50.550Z,14.29
2023-04-16T15:49:17.155Z,14.31
2023-04-16T17:26:02.597Z,12.31
2023-04-16T17:28:29.071Z,12.23
2023-04-16T17:30:56.872Z,12.15
2023-04-16T17:33:23.380Z,12.14
2023-04-16T17:35:49.885Z,12.10
2023-04-16T17:38:16.325Z,12.09
2023-04-16T17:40:42.942Z,12.03
2023-04-16T18:44:20.857Z,11.59
2023-04-16T18:46:47.439Z,11.58
2023-04-16T18:49:14.078Z,11.57
2023-04-16T18:51:41.992Z,11.58
2023-04-16T18:54:08.466Z,11.60
2023-04-16T18:56:34.930Z,11.57
2023-04-16T18:59:01.745Z,11.55
2023-04-16T19:01:28.279Z,11.54
2023-04-16T19:03:54.867Z,11.52
2023-04-16T19:06:21.416Z,11.53
2023-04-16T19:08:47.858Z,11.52
2023-04-16T19:11:14.308Z,11.53
2023-04-16T19:13:40.778Z,11.50
2023-04-16T19:16:11.378Z,11.48
2023-04-16T19:18:39.002Z,11.45
2023-04-16T19:21:06.905Z,11.43
2023-04-16T19:23:33.360Z,11.43
2023-04-16T19:26:01.397Z,11.41
2023-04-16T19:28:28.319Z,11.41
2023-04-16T19:30:55.959Z,11.40
2023-04-16T19:33:22.490Z,11.38
2023-04-16T19:35:49.015Z,11.39
2023-04-16T19:38:15.583Z,11.32
2023-04-16T19:40:46.671Z,11.30
2023-04-16T19:43:13.423Z,11.28
2023-04-16T19:45:47.396Z,11.27
2023-04-16T19:48:14.572Z,11.28
2023-04-16T19:50:42.219Z,11.28
2023-04-16T19:53:09.037Z,11.27
2023-04-16T19:55:35.762Z,11.25
2023-04-16T19:58:06.131Z,11.23
2023-04-16T20:00:40.678Z,11.19
2023-04-16T20:03:07.582Z,11.20
2023-04-16T20:05:34.114Z,11.19
2023-04-16T20:08:00.839Z,11.17
2023-04-16T20:10:27.760Z,11.15
2023-04-16T20:12:54.233Z,11.12
2023-04-16T20:15:20.934Z,11.10
2023-04-16T20:17:47.516Z,11.08
2023-04-16T20:20:15.888Z,11.07
2023-04-16T20:22:42.975Z,11.08
2023-04-16T20:25:09.666Z,11.04
2023-04-16T20:27:36.179Z,11.03
2023-04-16T20:30:03.631Z,11.02
2023-04-16T20:32:30.142Z,11.00
2023-04-16T20:34:56.711Z,10.97
2023-04-16T20:37:23.214Z,10.97
2023-04-16T20:39:53.987Z,10.96
2023-04-16T20:42:21.972Z,10.97
2023-04-16T20:44:50.581Z,10.98
2023-04-16T20:47:17.242Z,10.95
2023-04-16T20:49:47.279Z,10.93
2023-04-16T20:52:14.746Z,10.88
2023-04-16T20:54:41.555Z,10.84
2023-04-16T20:57:08.196Z,10.82
2023-04-16T20:59:34.795Z,10.81
2023-04-16T21:02:01.608Z,10.77
2023-04-16T21:04:28.274Z,10.79
2023-04-16T21:06:54.996Z,10.75
2023-04-16T21:09:21.880Z,10.73
2023-04-16T21:11:48.456Z,10.75
2023-04-16T21:14:14.887Z,10.76
2023-04-16T21:16:41.359Z,10.77
2023-04-16T21:19:08.694Z,10.75
2023-04-16T21:21:35.530Z,10.79
2023-04-16T21:24:02.150Z,10.77
2023-04-16T21:26:28.662Z,10.78
2023-04-16T21:28:55.442Z,10.79
2023-04-16T21:31:21.975Z,10.75
2023-04-16T21:33:48.623Z,10.74
2023-04-16T21:36:15.471Z,10.75
2023-04-16T21:38:41.990Z,10.75
2023-04-16T21:41:08.414Z,10.74
2023-04-16T21:43:34.836Z,10.75
2023-04-16T21:46:01.351Z,10.76
2023-04-16T21:48:28.571Z,10.76
2023-04-16T21:51:00.989Z,10.75
2023-04-16T21:53:31.934Z,10.71
2023-04-16T21:55:58.528Z,10.70
2023-04-16T21:58:27.964Z,10.70
2023-04-16T22:00:54.531Z,10.69
2023-04-16T22:03:28.140Z,10.68
2023-04-16T22:06:00.922Z,10.65
2023-04-16T22:08:31.377Z,10.67
2023-04-16T22:10:59.156Z,10.57
2023-04-16T22:13:26.274Z,10.53
2023-04-16T22:15:53.232Z,10.53
2023-04-16T22:18:19.683Z,10.57
2023-04-16T22:20:47.178Z,10.54
2023-04-16T22:23:14.158Z,10.54
2023-04-16T22:25:40.622Z,10.50
2023-04-16T22:28:07.150Z,10.47
2023-04-16T22:30:33.637Z,10.46
2023-04-16T22:33:00.901Z,10.43
2023-04-16T22:35:27.506Z,10.41
2023-04-16T22:37:53.946Z,10.40
2023-04-16T22:40:20.462Z,10.37
2023-04-16T22:42:47.708Z,10.35
2023-04-16T22:45:14.152Z,10.35
2023-04-16T22:47:41.556Z,10.38
2023-04-16T22:50:08.565Z,10.36
2023-04-16T22:52:35.012Z,10.36
2023-04-16T22:55:01.512Z,10.34
2023-04-16T22:57:27.936Z,10.37
2023-04-16T22:59:54.580Z,10.41
2023-04-16T23:02:21.511Z,10.42
2023-04-16T23:04:48.177Z,10.36
2023-04-16T23:07:15.662Z,10.37
2023-04-16T23:09:42.629Z,10.39
2023-04-16T23:12:09.124Z,10.44
2023-04-16T23:14:36.876Z,10.40
2023-04-16T23:17:03.514Z,10.34
2023-04-16T23:19:31.125Z,10.34
2023-04-16T23:21:57.898Z,10.36
2023-04-16T23:24:24.441Z,10.35
2023-04-16T23:26:52.395Z,10.35
2023-04-16T23:29:19.436Z,10.35
2023-04-16T23:31:45.995Z,10.37
2023-04-16T23:34:12.465Z,10.33
2023-04-16T23:36:39.323Z,10.34
2023-04-16T23:39:05.744Z,10.36
2023-04-16T23:41:32.179Z,10.35
2023-04-16T23:43:59.006Z,10.30
2023-04-16T23:46:26.190Z,10.26
2023-04-16T23:48:52.729Z,10.27
2023-04-16T23:51:19.211Z,10.25
2023-04-16T23:53:45.728Z,10.24
2023-04-16T23:56:12.173Z,10.23
2023-04-16T23:58:38.830Z,10.23
